sensor_id;sensor_type;location;lat;lon;timestamp;temperature;humidity
15789;DHT22;59075;50.670;6.474;2022-09-03T05:01:45;23.10;98.20
15789;DHT22;59075;50.670;6.474;2022-09-03T05:04:12;23.10;98.20
15789;DHT22;59075;50.670;6.474;2022-09-03T05:06:39;23.20;98.20
15789;DHT22;59075;50.670;6.474;2022-09-03T05:09:07;23.10;98.30
15789;DHT22;59075;50.670;6.474;2022-09-03T05:11:34;23.10;98.30
15789;DHT22;59075;50.670;6.474;2022-09-03T05:14:01;23.10;98.30
15789;DHT22;59075;50.670;6.474;2022-09-03T05:18:59;23.10;98.30
15789;DHT22;59075;50.670;6.474;2022-09-03T05:21:26;23.10;98.30
15789;DHT22;59075;50.670;6.474;2022-09-03T05:26:22;23.10;98.30
15789;DHT22;59075;50.670;6.474;2022-09-03T05:31:19;23.10;98.30
15789;DHT22;59075;50.670;6.474;2022-09-03T05:33:47;23.10;98.30
15789;DHT22;59075;50.670;6.474;2022-09-03T05:36:17;23.10;98.30
15789;DHT22;59075;50.670;6.474;2022-09-03T05:41:13;23.10;98.40
15789;DHT22;59075;50.670;6.474;2022-09-03T05:43:40;23.10;98.40
15789;DHT22;59075;50.670;6.474;2022-09-03T05:46:09;23.10;98.40
15789;DHT22;59075;50.670;6.474;2022-09-03T05:48:37;23.10;98.40
15789;DHT22;59075;50.670;6.474;2022-09-03T05:53:35;23.10;98.40
15789;DHT22;59075;50.670;6.474;2022-09-03T05:56:04;23.10;98.40
15789;DHT22;59075;50.670;6.474;2022-09-03T06:00:59;23.10;98.40
15789;DHT22;59075;50.670;6.474;2022-09-03T06:03:25;23.10;98.50
15789;DHT22;59075;50.670;6.474;2022-09-03T06:05:53;23.10;98.40
15789;DHT22;59075;50.670;6.474;2022-09-03T06:08:20;23.10;98.50
15789;DHT22;59075;50.670;6.474;2022-09-03T06:10:48;23.10;98.50
15789;DHT22;59075;50.670;6.474;2022-09-03T06:13:16;23.10;98.60
15789;DHT22;59075;50.670;6.474;2022-09-03T06:15:42;23.10;98.60
15789;DHT22;59075;50.670;6.474;2022-09-03T06:18:09;23.10;98.60
15789;DHT22;59075;50.670;6.474;2022-09-03T06:20:35;23.10;98.60
15789;DHT22;59075;50.670;6.474;2022-09-03T06:23:02;23.10;98.50
15789;DHT22;59075;50.670;6.474;2022-09-03T06:25:29;23.10;98.50
15789;DHT22;59075;50.670;6.474;2022-09-03T06:27:57;23.10;98.60
15789;DHT22;59075;50.670;6.474;2022-09-03T06:32:51;23.10;98.60
15789;DHT22;59075;50.670;6.474;2022-09-03T06:35:18;23.10;98.60
15789;DHT22;59075;50.670;6.474;2022-09-03T06:42:54;23.10;98.50
15789;DHT22;59075;50.670;6.474;2022-09-03T06:45:23;23.10;98.50
15789;DHT22;59075;50.670;6.474;2022-09-03T06:47:50;23.10;98.60
15789;DHT22;59075;50.670;6.474;2022-09-03T06:50:17;23.10;98.60
15789;DHT22;59075;50.670;6.474;2022-09-03T06:52:43;23.10;98.60
15789;DHT22;59075;50.670;6.474;2022-09-03T06:55:10;23.10;98.60
15789;DHT22;59075;50.670;6.474;2022-09-03T06:57:37;23.10;98.60
15789;DHT22;59075;50.670;6.474;2022-09-03T07:02:32;23.10;98.60
15789;DHT22;59075;50.670;6.474;2022-09-03T07:07:26;23.10;98.60
15789;DHT22;59075;50.670;6.474;2022-09-03T07:09:53;23.10;98.60
15789;DHT22;59075;50.670;6.474;2022-09-03T07:12:20;23.10;98.60
15789;DHT22;59075;50.670;6.474;2022-09-03T07:14:46;23.20;98.60
15789;DHT22;59075;50.670;6.474;2022-09-03T07:17:13;23.10;98.60
15789;DHT22;59075;50.670;6.474;2022-09-03T07:19:41;23.20;98.60
15789;DHT22;59075;50.670;6.474;2022-09-03T07:22:07;23.20;98.60
15789;DHT22;59075;50.670;6.474;2022-09-03T07:24:34;23.20;98.60
15789;DHT22;59075;50.670;6.474;2022-09-03T07:27:03;23.20;98.60
15789;DHT22;59075;50.670;6.474;2022-09-03T07:29:31;23.20;98.60
15789;DHT22;59075;50.670;6.474;2022-09-03T07:31:57;23.20;98.60
15789;DHT22;59075;50.670;6.474;2022-09-03T07:34:24;23.20;98.60
15789;DHT22;59075;50.670;6.474;2022-09-03T07:36:53;23.20;98.60
15789;DHT22;59075;50.670;6.474;2022-09-03T07:41:46;23.20;98.60
15789;DHT22;59075;50.670;6.474;2022-09-03T07:44:15;23.30;98.60
15789;DHT22;59075;50.670;6.474;2022-09-03T07:46:44;23.30;98.60
15789;DHT22;59075;50.670;6.474;2022-09-03T07:51:39;23.30;98.70
15789;DHT22;59075;50.670;6.474;2022-09-03T07:54:08;23.20;98.70
15789;DHT22;59075;50.670;6.474;2022-09-03T07:56:36;23.30;98.70
15789;DHT22;59075;50.670;6.474;2022-09-03T07:59:04;23.30;98.60
15789;DHT22;59075;50.670;6.474;2022-09-03T08:01:32;23.30;98.70
15789;DHT22;59075;50.670;6.474;2022-09-03T08:06:28;23.30;98.70
15789;DHT22;59075;50.670;6.474;2022-09-03T08:08:55;23.30;98.80
15789;DHT22;59075;50.670;6.474;2022-09-03T08:11:25;23.30;98.80
15789;DHT22;59075;50.670;6.474;2022-09-03T08:13:56;23.20;98.90
15789;DHT22;59075;50.670;6.474;2022-09-03T08:16:26;23.30;98.90
15789;DHT22;59075;50.670;6.474;2022-09-03T08:18:53;23.30;98.90
15789;DHT22;59075;50.670;6.474;2022-09-03T08:21:21;23.30;98.90
15789;DHT22;59075;50.670;6.474;2022-09-03T08:23:49;23.30;99.00
15789;DHT22;59075;50.670;6.474;2022-09-03T08:28:46;23.30;99.00
15789;DHT22;59075;50.670;6.474;2022-09-03T08:31:15;23.30;99.00
15789;DHT22;59075;50.670;6.474;2022-09-03T08:36:11;23.30;99.00
15789;DHT22;59075;50.670;6.474;2022-09-03T08:38:39;23.30;99.00
15789;DHT22;59075;50.670;6.474;2022-09-03T08:41:12;23.30;99.00
15789;DHT22;59075;50.670;6.474;2022-09-03T08:43:56;23.40;99.00
15789;DHT22;59075;50.670;6.474;2022-09-03T08:48:59;23.40;99.00
15789;DHT22;59075;50.670;6.474;2022-09-03T08:53:54;23.40;99.00
15789;DHT22;59075;50.670;6.474;2022-09-03T08:56:25;23.40;99.10
15789;DHT22;59075;50.670;6.474;2022-09-03T08:58:57;23.40;99.10
15789;DHT22;59075;50.670;6.474;2022-09-03T09:01:35;23.40;99.10
15789;DHT22;59075;50.670;6.474;2022-09-03T09:04:11;23.40;99.10
15789;DHT22;59075;50.670;6.474;2022-09-03T09:06:45;23.40;99.10
15789;DHT22;59075;50.670;6.474;2022-09-03T09:09:24;23.40;99.10
15789;DHT22;59075;50.670;6.474;2022-09-03T09:12:06;23.40;99.10
15789;DHT22;59075;50.670;6.474;2022-09-03T09:14:39;23.40;99.10
15789;DHT22;59075;50.670;6.474;2022-09-03T09:17:22;23.40;99.10
15789;DHT22;59075;50.670;6.474;2022-09-03T09:22:29;23.40;99.10
15789;DHT22;59075;50.670;6.474;2022-09-03T09:25:00;23.50;99.10
15789;DHT22;59075;50.670;6.474;2022-09-03T09:27:31;23.50;99.10
15789;DHT22;59075;50.670;6.474;2022-09-03T09:32:30;23.50;99.10
15789;DHT22;59075;50.670;6.474;2022-09-03T09:37:25;23.50;99.00
15789;DHT22;59075;50.670;6.474;2022-09-03T09:39:54;23.50;99.00
15789;DHT22;59075;50.670;6.474;2022-09-03T09:42:22;23.50;99.00
15789;DHT22;59075;50.670;6.474;2022-09-03T09:49:52;23.50;99.00
15789;DHT22;59075;50.670;6.474;2022-09-03T09:52:20;23.50;99.00
15789;DHT22;59075;50.670;6.474;2022-09-03T09:54:51;23.50;99.00
15789;DHT22;59075;50.670;6.474;2022-09-03T09:59:49;23.50;99.00
15789;DHT22;59075;50.670;6.474;2022-09-03T10:02:28;23.50;99.00
15789;DHT22;59075;50.670;6.474;2022-09-03T10:07:26;23.50;99.00
15789;DHT22;59075;50.670;6.474;2022-09-03T10:10:03;23.50;99.10
15789;DHT22;59075;50.670;6.474;2022-09-03T10:15:09;23.50;99.10
15789;DHT22;59075;50.670;6.474;2022-09-03T10:17:45;23.50;99.10
15789;DHT22;59075;50.670;6.474;2022-09-03T10:20:17;23.50;99.10
15789;DHT22;59075;50.670;6.474;2022-09-03T10:22:59;23.50;99.10
15789;DHT22;59075;50.670;6.474;2022-09-03T10:25:29;23.50;99.10
15789;DHT22;59075;50.670;6.474;2022-09-03T10:28:00;23.50;99.10
15789;DHT22;59075;50.670;6.474;2022-09-03T10:30:28;23.50;99.20
15789;DHT22;59075;50.670;6.474;2022-09-03T10:33:04;23.50;99.10
15789;DHT22;59075;50.670;6.474;2022-09-03T10:35:38;23.60;99.10
15789;DHT22;59075;50.670;6.474;2022-09-03T10:38:17;23.60;99.10
15789;DHT22;59075;50.670;6.474;2022-09-03T10:40:53;23.60;99.10
15789;DHT22;59075;50.670;6.474;2022-09-03T10:43:38;23.60;99.10
15789;DHT22;59075;50.670;6.474;2022-09-03T10:48:47;23.60;99.10
15789;DHT22;59075;50.670;6.474;2022-09-03T10:51:18;23.60;99.10
15789;DHT22;59075;50.670;6.474;2022-09-03T10:54:02;23.60;99.10
15789;DHT22;59075;50.670;6.474;2022-09-03T10:59:15;23.60;99.10
15789;DHT22;59075;50.670;6.474;2022-09-03T11:01:56;23.60;99.10
15789;DHT22;59075;50.670;6.474;2022-09-03T11:04:29;23.60;99.10
15789;DHT22;59075;50.670;6.474;2022-09-03T11:07:01;23.60;99.10
15789;DHT22;59075;50.670;6.474;2022-09-03T11:09:34;23.60;99.10
15789;DHT22;59075;50.670;6.474;2022-09-03T11:17:06;23.60;99.10
15789;DHT22;59075;50.670;6.474;2022-09-03T11:19:41;23.70;99.20
15789;DHT22;59075;50.670;6.474;2022-09-03T11:27:19;23.70;99.20
15789;DHT22;59075;50.670;6.474;2022-09-03T11:34:51;23.70;99.20
15789;DHT22;59075;50.670;6.474;2022-09-03T11:39:55;23.80;99.20
15789;DHT22;59075;50.670;6.474;2022-09-03T11:42:29;23.80;99.20
15789;DHT22;59075;50.670;6.474;2022-09-03T11:47:37;23.80;99.20
15789;DHT22;59075;50.670;6.474;2022-09-03T11:52:35;23.80;99.20
15789;DHT22;59075;50.670;6.474;2022-09-03T11:55:05;23.90;99.20
15789;DHT22;59075;50.670;6.474;2022-09-03T11:57:39;23.90;99.20
15789;DHT22;59075;50.670;6.474;2022-09-03T12:00:09;23.90;99.30
15789;DHT22;59075;50.670;6.474;2022-09-03T12:02:43;23.90;99.30
15789;DHT22;59075;50.670;6.474;2022-09-03T12:05:20;23.90;99.30
15789;DHT22;59075;50.670;6.474;2022-09-03T12:08:08;23.90;99.30
15789;DHT22;59075;50.670;6.474;2022-09-03T12:10:45;23.90;99.30
15789;DHT22;59075;50.670;6.474;2022-09-03T12:13:28;23.90;99.30
15789;DHT22;59075;50.670;6.474;2022-09-03T12:16:12;23.90;99.30
15789;DHT22;59075;50.670;6.474;2022-09-03T12:21:16;23.90;99.30
15789;DHT22;59075;50.670;6.474;2022-09-03T12:23:44;23.90;99.30
15789;DHT22;59075;50.670;6.474;2022-09-03T12:26:13;23.90;99.30
15789;DHT22;59075;50.670;6.474;2022-09-03T12:28:42;23.90;99.30
15789;DHT22;59075;50.670;6.474;2022-09-03T12:31:13;23.90;99.40
15789;DHT22;59075;50.670;6.474;2022-09-03T12:33:50;23.90;99.50
15789;DHT22;59075;50.670;6.474;2022-09-03T12:38:47;24.00;99.40
15789;DHT22;59075;50.670;6.474;2022-09-03T12:41:22;24.00;99.40
15789;DHT22;59075;50.670;6.474;2022-09-03T12:43:52;24.00;99.40
15789;DHT22;59075;50.670;6.474;2022-09-03T12:46:22;24.00;99.40
15789;DHT22;59075;50.670;6.474;2022-09-03T12:48:57;24.00;99.40
15789;DHT22;59075;50.670;6.474;2022-09-03T12:51:32;24.00;99.40
15789;DHT22;59075;50.670;6.474;2022-09-03T12:53:59;24.00;99.40
15789;DHT22;59075;50.670;6.474;2022-09-03T12:56:28;24.00;99.40
15789;DHT22;59075;50.670;6.474;2022-09-03T12:59:00;24.00;99.40
15789;DHT22;59075;50.670;6.474;2022-09-03T13:01:30;24.00;99.40
15789;DHT22;59075;50.670;6.474;2022-09-03T13:04:02;24.00;99.40
15789;DHT22;59075;50.670;6.474;2022-09-03T13:06:53;24.00;99.50
15789;DHT22;59075;50.670;6.474;2022-09-03T13:09:23;24.00;99.50
15789;DHT22;59075;50.670;6.474;2022-09-03T13:11:51;24.00;99.50
15789;DHT22;59075;50.670;6.474;2022-09-03T13:14:20;24.00;99.60
15789;DHT22;59075;50.670;6.474;2022-09-03T13:17:25;23.90;99.60
15789;DHT22;59075;50.670;6.474;2022-09-03T13:20:19;23.90;99.60
15789;DHT22;59075;50.670;6.474;2022-09-03T13:23:01;24.00;99.60
15789;DHT22;59075;50.670;6.474;2022-09-03T13:25:36;24.00;99.70
15789;DHT22;59075;50.670;6.474;2022-09-03T13:28:20;24.00;99.80
15789;DHT22;59075;50.670;6.474;2022-09-03T13:30:56;24.00;99.80
15789;DHT22;59075;50.670;6.474;2022-09-03T13:33:27;24.00;99.90
15789;DHT22;59075;50.670;6.474;2022-09-03T13:36:01;24.00;99.90
15789;DHT22;59075;50.670;6.474;2022-09-03T13:41:02;24.00;99.90
15789;DHT22;59075;50.670;6.474;2022-09-03T13:43:38;24.00;99.90
15789;DHT22;59075;50.670;6.474;2022-09-03T13:46:10;24.00;99.90
15789;DHT22;59075;50.670;6.474;2022-09-03T13:48:40;24.00;99.90
15789;DHT22;59075;50.670;6.474;2022-09-03T13:51:26;24.00;99.90
15789;DHT22;59075;50.670;6.474;2022-09-03T13:54:04;24.00;99.90
15789;DHT22;59075;50.670;6.474;2022-09-03T13:56:45;24.00;99.90
15789;DHT22;59075;50.670;6.474;2022-09-03T13:59:18;24.00;99.90
15789;DHT22;59075;50.670;6.474;2022-09-03T14:02:15;24.00;99.90
15789;DHT22;59075;50.670;6.474;2022-09-03T14:04:54;24.00;99.90
15789;DHT22;59075;50.670;6.474;2022-09-03T14:07:27;24.00;99.90
15789;DHT22;59075;50.670;6.474;2022-09-03T14:10:08;24.10;99.90
15789;DHT22;59075;50.670;6.474;2022-09-03T14:12:43;24.10;99.90
15789;DHT22;59075;50.670;6.474;2022-09-03T14:15:16;24.00;99.90
15789;DHT22;59075;50.670;6.474;2022-09-03T14:17:48;24.00;99.90
15789;DHT22;59075;50.670;6.474;2022-09-03T14:20:21;24.10;99.90
15789;DHT22;59075;50.670;6.474;2022-09-03T14:22:52;24.10;99.90
15789;DHT22;59075;50.670;6.474;2022-09-03T14:27:51;24.00;99.90
15789;DHT22;59075;50.670;6.474;2022-09-03T14:32:55;24.00;99.90
15789;DHT22;59075;50.670;6.474;2022-09-03T14:35:37;24.10;99.90
15789;DHT22;59075;50.670;6.474;2022-09-03T14:40:51;24.00;99.90
15789;DHT22;59075;50.670;6.474;2022-09-03T14:46:16;24.10;99.90
15789;DHT22;59075;50.670;6.474;2022-09-03T14:49:16;24.10;99.90
15789;DHT22;59075;50.670;6.474;2022-09-03T14:51:58;24.10;99.90
15789;DHT22;59075;50.670;6.474;2022-09-03T15:00:00;24.10;99.90
15789;DHT22;59075;50.670;6.474;2022-09-03T15:05:14;24.10;99.90
15789;DHT22;59075;50.670;6.474;2022-09-03T15:07:48;24.10;99.90
15789;DHT22;59075;50.670;6.474;2022-09-03T15:10:23;24.10;99.90
15789;DHT22;59075;50.670;6.474;2022-09-03T15:12:56;24.10;99.90
15789;DHT22;59075;50.670;6.474;2022-09-03T15:15:31;24.10;99.90
15789;DHT22;59075;50.670;6.474;2022-09-03T15:18:13;24.10;99.90
15789;DHT22;59075;50.670;6.474;2022-09-03T15:20:48;24.10;99.90
15789;DHT22;59075;50.670;6.474;2022-09-03T15:23:22;24.10;99.90
15789;DHT22;59075;50.670;6.474;2022-09-03T15:29:08;24.10;99.90
15789;DHT22;59075;50.670;6.474;2022-09-03T15:31:45;24.10;99.90
15789;DHT22;59075;50.670;6.474;2022-09-03T15:34:32;24.10;99.90
15789;DHT22;59075;50.670;6.474;2022-09-03T15:42:06;24.10;99.90
15789;DHT22;59075;50.670;6.474;2022-09-03T15:47:08;24.10;99.90
15789;DHT22;59075;50.670;6.474;2022-09-03T15:49:47;24.10;99.90
15789;DHT22;59075;50.670;6.474;2022-09-03T15:52:28;24.10;99.90
15789;DHT22;59075;50.670;6.474;2022-09-03T15:54:59;24.10;99.90
15789;DHT22;59075;50.670;6.474;2022-09-03T15:57:31;24.10;99.90
15789;DHT22;59075;50.670;6.474;2022-09-03T16:00:03;24.10;99.90
15789;DHT22;59075;50.670;6.474;2022-09-03T16:02:39;24.10;99.90
15789;DHT22;59075;50.670;6.474;2022-09-03T16:05:12;24.10;99.90
15789;DHT22;59075;50.670;6.474;2022-09-03T16:07:56;24.10;99.90
15789;DHT22;59075;50.670;6.474;2022-09-03T16:10:36;24.10;99.90
15789;DHT22;59075;50.670;6.474;2022-09-03T16:13:13;24.10;99.90
15789;DHT22;59075;50.670;6.474;2022-09-03T16:18:25;24.10;99.90
15789;DHT22;59075;50.670;6.474;2022-09-03T16:20:57;24.10;99.90
15789;DHT22;59075;50.670;6.474;2022-09-03T16:23:30;24.10;99.90
15789;DHT22;59075;50.670;6.474;2022-09-03T16:26:02;24.10;99.90
15789;DHT22;59075;50.670;6.474;2022-09-03T16:28:34;24.10;99.90
15789;DHT22;59075;50.670;6.474;2022-09-03T16:31:13;24.10;99.90
15789;DHT22;59075;50.670;6.474;2022-09-03T16:33:46;24.10;99.90
15789;DHT22;59075;50.670;6.474;2022-09-03T16:36:26;24.10;99.90
15789;DHT22;59075;50.670;6.474;2022-09-03T16:39:00;24.10;99.90
15789;DHT22;59075;50.670;6.474;2022-09-03T16:41:33;24.20;99.90
15789;DHT22;59075;50.670;6.474;2022-09-03T16:49:33;24.10;99.90
15789;DHT22;59075;50.670;6.474;2022-09-03T16:52:08;24.10;99.90
15789;DHT22;59075;50.670;6.474;2022-09-03T16:54:51;24.10;99.90
15789;DHT22;59075;50.670;6.474;2022-09-03T16:57:29;24.10;99.90
15789;DHT22;59075;50.670;6.474;2022-09-03T17:00:03;24.10;99.90
15789;DHT22;59075;50.670;6.474;2022-09-03T17:02:56;24.10;99.90
15789;DHT22;59075;50.670;6.474;2022-09-03T17:05:44;24.10;99.90
15789;DHT22;59075;50.670;6.474;2022-09-03T17:08:18;24.10;99.90
15789;DHT22;59075;50.670;6.474;2022-09-03T17:10:53;24.10;99.90
15789;DHT22;59075;50.670;6.474;2022-09-03T17:16:12;24.10;99.90
15789;DHT22;59075;50.670;6.474;2022-09-03T17:21:30;24.10;99.90
15789;DHT22;59075;50.670;6.474;2022-09-03T17:24:19;24.10;99.90
15789;DHT22;59075;50.670;6.474;2022-09-03T17:26:53;24.10;99.90
15789;DHT22;59075;50.670;6.474;2022-09-03T17:29:39;24.10;99.90
15789;DHT22;59075;50.670;6.474;2022-09-03T17:32:26;24.10;99.90
15789;DHT22;59075;50.670;6.474;2022-09-03T17:35:07;24.10;99.90
15789;DHT22;59075;50.670;6.474;2022-09-03T17:40:25;24.10;99.90
15789;DHT22;59075;50.670;6.474;2022-09-03T17:43:01;24.10;99.90
15789;DHT22;59075;50.670;6.474;2022-09-03T17:45:36;24.10;99.90
15789;DHT22;59075;50.670;6.474;2022-09-03T17:48:34;24.10;99.90
15789;DHT22;59075;50.670;6.474;2022-09-03T17:53:39;24.10;99.90
15789;DHT22;59075;50.670;6.474;2022-09-03T17:56:19;24.10;99.90
15789;DHT22;59075;50.670;6.474;2022-09-03T17:58:50;24.10;99.90
15789;DHT22;59075;50.670;6.474;2022-09-03T18:01:22;24.10;99.90
15789;DHT22;59075;50.670;6.474;2022-09-03T18:03:53;24.10;99.90
15789;DHT22;59075;50.670;6.474;2022-09-03T18:08:59;24.10;99.90
15789;DHT22;59075;50.670;6.474;2022-09-03T18:14:03;24.00;99.90
15789;DHT22;59075;50.670;6.474;2022-09-03T18:19:03;24.00;99.90
15789;DHT22;59075;50.670;6.474;2022-09-03T18:21:36;24.00;99.90
15789;DHT22;59075;50.670;6.474;2022-09-03T18:27:14;24.00;99.90
15789;DHT22;59075;50.670;6.474;2022-09-03T18:30:02;24.00;99.90
15789;DHT22;59075;50.670;6.474;2022-09-03T18:35:31;24.00;99.90
15789;DHT22;59075;50.670;6.474;2022-09-03T18:41:26;24.00;99.90
15789;DHT22;59075;50.670;6.474;2022-09-03T18:44:19;24.00;99.90
15789;DHT22;59075;50.670;6.474;2022-09-03T18:47:18;24.00;99.90
15789;DHT22;59075;50.670;6.474;2022-09-03T18:50:11;24.00;99.90
15789;DHT22;59075;50.670;6.474;2022-09-03T18:53:01;24.00;99.90
15789;DHT22;59075;50.670;6.474;2022-09-03T18:55:55;24.00;99.90
15789;DHT22;59075;50.670;6.474;2022-09-03T18:58:54;24.00;99.90
15789;DHT22;59075;50.670;6.474;2022-09-03T19:01:42;24.00;99.90
15789;DHT22;59075;50.670;6.474;2022-09-03T19:04:36;23.90;99.90
15789;DHT22;59075;50.670;6.474;2022-09-03T19:07:25;24.00;99.90
15789;DHT22;59075;50.670;6.474;2022-09-03T19:10:16;24.00;99.90
15789;DHT22;59075;50.670;6.474;2022-09-03T19:13:20;24.00;99.90
15789;DHT22;59075;50.670;6.474;2022-09-03T19:16:10;23.90;99.90
15789;DHT22;59075;50.670;6.474;2022-09-03T19:22:07;23.90;99.90
15789;DHT22;59075;50.670;6.474;2022-09-03T19:24:56;23.90;99.90
15789;DHT22;59075;50.670;6.474;2022-09-03T19:30:40;23.90;99.90
15789;DHT22;59075;50.670;6.474;2022-09-03T19:33:34;23.90;99.90
15789;DHT22;59075;50.670;6.474;2022-09-03T19:39:33;23.90;99.90
15789;DHT22;59075;50.670;6.474;2022-09-03T19:42:26;23.90;99.90
15789;DHT22;59075;50.670;6.474;2022-09-03T19:45:21;23.90;99.90
15789;DHT22;59075;50.670;6.474;2022-09-03T19:51:04;23.90;99.90
15789;DHT22;59075;50.670;6.474;2022-09-03T19:53:49;23.90;99.90
15789;DHT22;59075;50.670;6.474;2022-09-03T19:56:36;23.90;99.90
15789;DHT22;59075;50.670;6.474;2022-09-03T19:59:25;23.80;99.90
15789;DHT22;59075;50.670;6.474;2022-09-03T20:02:11;23.80;99.90
15789;DHT22;59075;50.670;6.474;2022-09-03T20:07:44;23.90;99.90
15789;DHT22;59075;50.670;6.474;2022-09-03T20:10:28;23.80;99.90
15789;DHT22;59075;50.670;6.474;2022-09-03T20:13:02;23.80;99.90
15789;DHT22;59075;50.670;6.474;2022-09-03T20:15:46;23.80;99.90
15789;DHT22;59075;50.670;6.474;2022-09-03T20:18:24;23.80;99.90
15789;DHT22;59075;50.670;6.474;2022-09-03T20:21:00;23.80;99.90
15789;DHT22;59075;50.670;6.474;2022-09-03T20:26:09;23.80;99.90
15789;DHT22;59075;50.670;6.474;2022-09-03T20:28:57;23.80;99.90
15789;DHT22;59075;50.670;6.474;2022-09-03T20:31:30;23.80;99.90
15789;DHT22;59075;50.670;6.474;2022-09-03T20:34:11;23.80;99.90
15789;DHT22;59075;50.670;6.474;2022-09-03T20:36:51;23.80;99.90
15789;DHT22;59075;50.670;6.474;2022-09-03T20:39:38;23.80;99.90
15789;DHT22;59075;50.670;6.474;2022-09-03T20:45:22;23.80;99.90
15789;DHT22;59075;50.670;6.474;2022-09-03T20:48:06;23.70;99.90
15789;DHT22;59075;50.670;6.474;2022-09-03T20:50:43;23.80;99.90
15789;DHT22;59075;50.670;6.474;2022-09-03T20:53:43;23.80;99.90
15789;DHT22;59075;50.670;6.474;2022-09-03T20:56:19;23.80;99.90
